Time;durP1;ratioP1;P1;durP2;ratioP2;P2;SDS_P1;SDS_P2;PMS_P1;PMS_P2;Temp;Humidity;BMP_temperature;BMP_pressure;BME280_temperature;BME280_humidity;BME280_pressure;Samples;Min_cycle;Max_cycle;Signal;HPM_P1;HPM_P2
2021/09/02 00:00:42;;;;;;;8.18;3.38;;;;;;;;;;4919091;28;20044;-61
2021/09/02 00:03:08;;;;;;;7.13;3.75;;;;;;;;;;4919609;28;20038;-60
2021/09/02 00:05:34;;;;;;;18.25;3.58;;;;;;;;;;4906517;28;20028;-61
2021/09/02 00:07:59;;;;;;;6.93;3.88;;;;;;;;;;4909475;29;20934;-60
2021/09/02 00:10:24;;;;;;;10.00;4.45;;;;;;;;;;4916861;28;20046;-61
2021/09/02 00:12:52;;;;;;;12.80;3.97;;;;;;;;;;4919756;28;20040;-60
2021/09/02 00:15:20;;;;;;;7.65;4.03;;;;;;;;;;4920308;28;20045;-61
2021/09/02 00:17:48;;;;;;;10.73;3.92;;;;;;;;;;4906604;28;20035;-60
2021/09/02 00:20:20;;;;;;;9.48;3.97;;;;;;;;;;4918633;28;20167;-60
2021/09/02 00:22:53;;;;;;;8.15;3.65;;;;;;;;;;4918120;28;20063;-60
2021/09/02 00:25:20;;;;;;;10.90;4.25;;;;;;;;;;4905361;29;20066;-60
2021/09/02 00:27:48;;;;;;;7.65;4.43;;;;;;;;;;4923776;28;20036;-60
2021/09/02 00:30:16;;;;;;;11.70;3.85;;;;;;;;;;4902850;29;20035;-60
2021/09/02 00:32:41;;;;;;;9.52;4.53;;;;;;;;;;4919405;28;20135;-60
2021/09/02 00:35:09;;;;;;;11.52;4.95;;;;;;;;;;4936760;28;20247;-60
2021/09/02 00:37:36;;;;;;;11.70;4.25;;;;;;;;;;4921179;28;20039;-60
2021/09/02 00:40:10;;;;;;;12.77;4.38;;;;;;;;;;4905837;28;20062;-60
2021/09/02 00:42:35;;;;;;;11.27;4.00;;;;;;;;;;4935897;28;20039;-60
2021/09/02 00:45:05;;;;;;;8.23;4.03;;;;;;;;;;4904828;29;20055;-60
2021/09/02 00:47:31;;;;;;;11.65;4.93;;;;;;;;;;4928228;28;20038;-61
2021/09/02 00:49:59;;;;;;;14.15;4.15;;;;;;;;;;4920974;28;20229;-60
2021/09/02 00:52:25;;;;;;;11.80;4.13;;;;;;;;;;4918794;28;20450;-60
2021/09/02 00:54:52;;;;;;;11.75;4.63;;;;;;;;;;4912680;29;20036;-60
2021/09/02 00:57:19;;;;;;;12.57;4.03;;;;;;;;;;4935185;28;20046;-60
2021/09/02 00:59:52;;;;;;;13.25;5.40;;;;;;;;;;4921837;28;20039;-60
2021/09/02 01:02:19;;;;;;;13.27;4.85;;;;;;;;;;4918146;28;20961;-60
2021/09/02 01:04:46;;;;;;;13.20;5.03;;;;;;;;;;4922124;28;20081;-60
2021/09/02 01:07:12;;;;;;;16.30;5.45;;;;;;;;;;4935289;28;20042;-60
2021/09/02 01:09:37;;;;;;;10.80;4.80;;;;;;;;;;4923991;28;20043;-59
2021/09/02 01:12:21;;;;;;;8.63;4.82;;;;;;;;;;4920986;28;20798;-59
2021/09/02 01:14:47;;;;;;;8.43;4.70;;;;;;;;;;4936294;28;20042;-59
2021/09/02 01:17:15;;;;;;;16.17;5.30;;;;;;;;;;4887708;29;20036;-61
2021/09/02 01:19:45;;;;;;;9.85;4.47;;;;;;;;;;4937356;28;20601;-60
2021/09/02 01:22:13;;;;;;;14.90;6.05;;;;;;;;;;4919509;28;20123;-60
2021/09/02 01:24:43;;;;;;;18.48;5.45;;;;;;;;;;4917772;28;20039;-60
2021/09/02 01:27:08;;;;;;;11.50;5.03;;;;;;;;;;4920494;28;21095;-60
2021/09/02 01:29:34;;;;;;;12.13;4.65;;;;;;;;;;4921668;28;20071;-60
2021/09/02 01:32:02;;;;;;;16.83;5.43;;;;;;;;;;4919479;28;20705;-60
2021/09/02 01:34:30;;;;;;;12.90;5.03;;;;;;;;;;4921788;28;22140;-61
2021/09/02 01:36:56;;;;;;;13.77;5.03;;;;;;;;;;4905055;29;20035;-60
2021/09/02 01:39:23;;;;;;;11.63;4.88;;;;;;;;;;4912765;29;20036;-60
2021/09/02 01:41:51;;;;;;;12.85;5.47;;;;;;;;;;4919958;28;20051;-60
2021/09/02 01:44:23;;;;;;;17.63;5.60;;;;;;;;;;4919472;28;20047;-60
2021/09/02 01:46:49;;;;;;;21.40;6.50;;;;;;;;;;4919728;28;20221;-60
2021/09/02 01:49:17;;;;;;;12.77;5.65;;;;;;;;;;4911122;29;20038;-59
2021/09/02 01:51:47;;;;;;;15.77;6.35;;;;;;;;;;4920258;28;20432;-60
2021/09/02 01:54:17;;;;;;;20.77;5.65;;;;;;;;;;4921190;28;20031;-60
2021/09/02 01:56:43;;;;;;;13.98;4.78;;;;;;;;;;4918231;28;20042;-60
2021/09/02 01:59:08;;;;;;;13.93;5.28;;;;;;;;;;4919496;28;20039;-59
2021/09/02 02:01:36;;;;;;;15.55;5.68;;;;;;;;;;4920288;28;20093;-59
2021/09/02 02:04:04;;;;;;;18.52;6.63;;;;;;;;;;4934799;28;20600;-61
2021/09/02 02:06:31;;;;;;;15.73;5.97;;;;;;;;;;4921243;28;20031;-60
2021/09/02 02:08:59;;;;;;;20.35;6.13;;;;;;;;;;4919596;28;20070;-59
2021/09/02 02:11:27;;;;;;;16.02;5.68;;;;;;;;;;4919028;28;20037;-59
2021/09/02 02:13:57;;;;;;;18.90;5.78;;;;;;;;;;4920952;28;20768;-59
2021/09/02 02:16:23;;;;;;;15.50;5.38;;;;;;;;;;4920590;28;21287;-60
2021/09/02 02:18:51;;;;;;;17.10;5.57;;;;;;;;;;4911677;28;20122;-60
2021/09/02 02:21:19;;;;;;;22.17;6.55;;;;;;;;;;4892192;29;20129;-60
2021/09/02 02:23:47;;;;;;;13.18;5.45;;;;;;;;;;4919493;28;20027;-60
2021/09/02 02:26:12;;;;;;;18.85;5.70;;;;;;;;;;4917715;28;20182;-59
2021/09/02 02:28:37;;;;;;;16.08;5.32;;;;;;;;;;4920905;28;20617;-60
2021/09/02 02:31:07;;;;;;;20.05;6.15;;;;;;;;;;4903906;29;20035;-60
2021/09/02 02:33:33;;;;;;;27.50;6.80;;;;;;;;;;4919574;28;20522;-60
2021/09/02 02:36:03;;;;;;;15.05;6.20;;;;;;;;;;4922373;28;20024;-60
2021/09/02 02:38:29;;;;;;;15.68;5.97;;;;;;;;;;4917581;28;20067;-60
2021/09/02 02:40:58;;;;;;;20.85;7.68;;;;;;;;;;4922008;28;20047;-59
2021/09/02 02:43:25;;;;;;;23.58;6.72;;;;;;;;;;4917647;28;21974;-59
2021/09/02 02:45:57;;;;;;;20.85;6.57;;;;;;;;;;4916538;28;20035;-60
2021/09/02 02:48:23;;;;;;;14.90;6.13;;;;;;;;;;4920301;28;20032;-60
2021/09/02 02:50:50;;;;;;;23.13;6.53;;;;;;;;;;4919423;28;20082;-60
2021/09/02 02:53:18;;;;;;;21.02;6.65;;;;;;;;;;4924250;28;20058;-60
2021/09/02 02:55:44;;;;;;;15.65;5.63;;;;;;;;;;4925962;28;20131;-60
2021/09/02 02:58:11;;;;;;;23.15;6.18;;;;;;;;;;4919239;28;20640;-60
2021/09/02 03:00:39;;;;;;;24.30;7.03;;;;;;;;;;4919753;28;20093;-60
2021/09/02 03:03:07;;;;;;;24.77;6.57;;;;;;;;;;4921840;28;20031;-59
2021/09/02 03:05:32;;;;;;;15.85;5.82;;;;;;;;;;4932915;28;20043;-60
2021/09/02 03:08:00;;;;;;;16.33;6.60;;;;;;;;;;4920027;28;20039;-60
2021/09/02 03:10:26;;;;;;;16.88;7.05;;;;;;;;;;4918403;28;20043;-59
2021/09/02 03:13:01;;;;;;;18.08;7.30;;;;;;;;;;4924697;28;20031;-59
2021/09/02 03:15:30;;;;;;;17.70;6.65;;;;;;;;;;4934445;28;20119;-59
2021/09/02 03:17:55;;;;;;;16.20;6.50;;;;;;;;;;4917892;28;20035;-59
2021/09/02 03:20:23;;;;;;;23.38;6.82;;;;;;;;;;4916717;28;20050;-60
2021/09/02 03:22:49;;;;;;;19.50;6.97;;;;;;;;;;4923744;28;20146;-59
2021/09/02 03:28:28;;;;;;;22.00;8.00;;;;;;;;;;4919075;28;20035;-60
2021/09/02 03:30:53;;;;;;;25.08;8.77;;;;;;;;;;4919574;28;20026;-60
2021/09/02 03:33:21;;;;;;;22.27;7.82;;;;;;;;;;4917246;28;20170;-61
2021/09/02 03:35:46;;;;;;;20.05;7.90;;;;;;;;;;4908385;28;20082;-60
2021/09/02 03:38:17;;;;;;;20.35;7.93;;;;;;;;;;4917320;29;20027;-60
2021/09/02 03:40:51;;;;;;;22.83;8.65;;;;;;;;;;4923503;28;20047;-60
2021/09/02 03:43:20;;;;;;;20.98;8.30;;;;;;;;;;4933451;28;20062;-60
2021/09/02 03:45:48;;;;;;;31.20;9.40;;;;;;;;;;4921781;28;20054;-60
2021/09/02 03:48:18;;;;;;;19.27;8.48;;;;;;;;;;4918569;28;21160;-61
2021/09/02 03:50:49;;;;;;;35.03;9.57;;;;;;;;;;4934147;28;20550;-59
2021/09/02 03:53:14;;;;;;;23.05;8.68;;;;;;;;;;4917405;28;20121;-61
2021/09/02 03:55:45;;;;;;;24.35;8.02;;;;;;;;;;4918743;28;20487;-60
2021/09/02 03:58:10;;;;;;;28.48;7.90;;;;;;;;;;4916698;28;20082;-59
2021/09/02 04:00:39;;;;;;;13.10;6.60;;;;;;;;;;4919655;28;20039;-59
2021/09/02 04:03:05;;;;;;;20.08;7.53;;;;;;;;;;4919352;28;20377;-60
2021/09/02 04:05:33;;;;;;;19.73;6.97;;;;;;;;;;4916435;28;20495;-59
2021/09/02 04:08:01;;;;;;;30.35;7.00;;;;;;;;;;4917888;28;20048;-60
2021/09/02 04:10:31;;;;;;;28.23;7.10;;;;;;;;;;4933628;28;20035;-60
2021/09/02 04:12:57;;;;;;;13.30;6.35;;;;;;;;;;4916848;28;20203;-60
2021/09/02 04:15:25;;;;;;;20.27;6.68;;;;;;;;;;4918310;28;20040;-60
2021/09/02 04:17:55;;;;;;;22.23;6.57;;;;;;;;;;4918731;28;20146;-60
2021/09/02 04:20:20;;;;;;;23.70;7.65;;;;;;;;;;4889570;28;20067;-60
2021/09/02 04:22:49;;;;;;;22.92;7.40;;;;;;;;;;4918689;28;20710;-60
2021/09/02 04:25:20;;;;;;;20.77;6.45;;;;;;;;;;4900902;28;20047;-60
2021/09/02 04:27:51;;;;;;;15.18;6.68;;;;;;;;;;4918482;28;20030;-59
2021/09/02 04:30:19;;;;;;;13.00;5.88;;;;;;;;;;4933627;28;20044;-59
2021/09/02 04:32:47;;;;;;;17.00;6.32;;;;;;;;;;4932406;28;20024;-59
2021/09/02 04:35:15;;;;;;;19.60;6.85;;;;;;;;;;4934200;28;20086;-59
2021/09/02 04:37:42;;;;;;;14.35;5.55;;;;;;;;;;4915898;28;20027;-59
2021/09/02 04:40:10;;;;;;;21.55;5.80;;;;;;;;;;4918810;28;20043;-59
2021/09/02 04:42:39;;;;;;;18.30;6.55;;;;;;;;;;4899892;28;20069;-59
2021/09/02 04:45:04;;;;;;;17.20;5.40;;;;;;;;;;4927496;28;20050;-60
2021/09/02 04:47:32;;;;;;;18.60;5.55;;;;;;;;;;4915321;28;20039;-60
2021/09/02 04:49:57;;;;;;;20.35;6.38;;;;;;;;;;4921870;28;20036;-60
2021/09/02 04:52:26;;;;;;;23.65;5.15;;;;;;;;;;4902616;29;20039;-59
2021/09/02 04:54:56;;;;;;;13.40;5.10;;;;;;;;;;4918564;28;20047;-60
2021/09/02 04:57:21;;;;;;;14.43;5.85;;;;;;;;;;4915911;28;20035;-60
2021/09/02 04:59:51;;;;;;;15.60;5.30;;;;;;;;;;4916696;28;22170;-60
2021/09/02 05:02:19;;;;;;;19.85;5.53;;;;;;;;;;4919616;28;20158;-60
2021/09/02 05:04:49;;;;;;;19.48;5.43;;;;;;;;;;4907322;29;20442;-60
2021/09/02 05:07:54;;;;;;;20.02;6.38;;;;;;;;;;4932380;28;20162;-60
2021/09/02 05:10:22;;;;;;;27.20;5.90;;;;;;;;;;4915841;28;20035;-60
2021/09/02 05:12:52;;;;;;;17.10;5.57;;;;;;;;;;4919311;28;20039;-60
2021/09/02 05:15:21;;;;;;;28.33;6.75;;;;;;;;;;4933407;28;20141;-60
2021/09/02 05:17:46;;;;;;;20.65;5.85;;;;;;;;;;4915742;28;20162;-60
2021/09/02 05:20:12;;;;;;;25.73;5.30;;;;;;;;;;4937161;28;20187;-60
2021/09/02 05:22:43;;;;;;;19.05;5.18;;;;;;;;;;4921311;28;20869;-60
2021/09/02 05:25:09;;;;;;;14.25;5.53;;;;;;;;;;4922137;28;20042;-60
2021/09/02 05:27:37;;;;;;;15.88;5.03;;;;;;;;;;4918070;28;20032;-60
2021/09/02 05:30:06;;;;;;;14.95;4.55;;;;;;;;;;4920818;28;20043;-60
2021/09/02 05:32:32;;;;;;;10.00;3.58;;;;;;;;;;4924315;28;20053;-59
2021/09/02 05:34:59;;;;;;;9.75;3.13;;;;;;;;;;4928169;28;20024;-60
2021/09/02 05:37:27;;;;;;;9.48;3.75;;;;;;;;;;4918990;28;20039;-60
2021/09/02 05:39:55;;;;;;;11.48;4.15;;;;;;;;;;4912060;29;20109;-60
2021/09/02 05:42:20;;;;;;;17.05;4.93;;;;;;;;;;4919007;28;20052;-60
2021/09/02 05:44:51;;;;;;;20.58;5.28;;;;;;;;;;4921146;28;20503;-60
2021/09/02 05:47:16;;;;;;;16.92;5.20;;;;;;;;;;4920858;28;20031;-59
2021/09/02 05:49:42;;;;;;;18.35;4.55;;;;;;;;;;4919088;28;20047;-59
2021/09/02 05:52:25;;;;;;;19.27;4.90;;;;;;;;;;4935081;28;20778;-60
2021/09/02 05:54:54;;;;;;;15.38;5.63;;;;;;;;;;4921376;28;20031;-60
2021/09/02 05:57:25;;;;;;;17.90;5.00;;;;;;;;;;4918821;28;20522;-61
2021/09/02 05:59:50;;;;;;;8.35;4.45;;;;;;;;;;4920904;28;20043;-60
2021/09/02 06:02:18;;;;;;;18.02;4.75;;;;;;;;;;4920099;28;20070;-60
2021/09/02 06:04:43;;;;;;;17.77;4.30;;;;;;;;;;4905187;29;20126;-60
2021/09/02 06:07:11;;;;;;;14.18;4.72;;;;;;;;;;4921372;28;20035;-60
2021/09/02 06:09:44;;;;;;;14.38;4.65;;;;;;;;;;4917423;28;20032;-60
2021/09/02 06:12:12;;;;;;;14.50;4.53;;;;;;;;;;4918503;28;20068;-59
2021/09/02 06:14:56;;;;;;;15.18;4.70;;;;;;;;;;4900516;28;20063;-60
2021/09/02 06:17:23;;;;;;;15.90;4.50;;;;;;;;;;4921495;29;20134;-60
2021/09/02 06:19:49;;;;;;;12.73;4.05;;;;;;;;;;4911148;29;20031;-59
2021/09/02 06:22:17;;;;;;;10.13;3.97;;;;;;;;;;4889277;29;20498;-59
2021/09/02 06:24:42;;;;;;;23.63;4.13;;;;;;;;;;4920235;28;20036;-60
2021/09/02 06:27:10;;;;;;;24.30;4.82;;;;;;;;;;4902001;28;21981;-59
2021/09/02 06:29:36;;;;;;;15.77;5.15;;;;;;;;;;4920084;28;20031;-59
2021/09/02 06:32:04;;;;;;;18.50;4.40;;;;;;;;;;4920313;28;20059;-62
2021/09/02 06:34:44;;;;;;;13.27;3.95;;;;;;;;;;4919207;28;20023;-62
2021/09/02 06:37:14;;;;;;;12.82;4.28;;;;;;;;;;4918129;28;20035;-61
2021/09/02 06:39:42;;;;;;;12.88;4.40;;;;;;;;;;4933678;28;20411;-61
2021/09/02 06:42:07;;;;;;;9.77;4.28;;;;;;;;;;4895014;29;20055;-62
2021/09/02 06:44:33;;;;;;;14.23;4.65;;;;;;;;;;4903042;29;20063;-62
2021/09/02 06:47:01;;;;;;;16.33;4.78;;;;;;;;;;4918555;28;20071;-62
2021/09/02 06:49:26;;;;;;;12.52;4.07;;;;;;;;;;4917333;28;20605;-62
2021/09/02 06:52:04;;;;;;;18.25;5.93;;;;;;;;;;4919042;28;20032;-63
2021/09/02 06:54:29;;;;;;;11.82;3.88;;;;;;;;;;4935346;28;20535;-63
2021/09/02 06:56:57;;;;;;;15.50;3.80;;;;;;;;;;4919774;28;20150;-64
2021/09/02 06:59:25;;;;;;;12.98;4.05;;;;;;;;;;4920844;28;20036;-62
2021/09/02 07:01:55;;;;;;;12.70;4.55;;;;;;;;;;4909754;28;20031;-63
2021/09/02 07:04:23;;;;;;;10.50;4.18;;;;;;;;;;4906197;29;20032;-63
2021/09/02 07:06:48;;;;;;;14.32;3.67;;;;;;;;;;4919440;28;20028;-62
2021/09/02 07:09:14;;;;;;;10.85;4.72;;;;;;;;;;4918104;28;20055;-64
2021/09/02 07:11:45;;;;;;;12.48;3.63;;;;;;;;;;4918713;28;20041;-63
2021/09/02 07:14:14;;;;;;;18.65;4.03;;;;;;;;;;4894649;28;20051;-63
2021/09/02 07:16:40;;;;;;;10.18;4.80;;;;;;;;;;4919619;28;20555;-62
2021/09/02 07:19:05;;;;;;;21.00;3.97;;;;;;;;;;4920009;28;20042;-62
2021/09/02 07:25:10;;;;;;;10.25;4.07;;;;;;;;;;4915268;28;20042;-62
2021/09/02 07:27:38;;;;;;;13.45;4.03;;;;;;;;;;4915908;28;20035;-62
2021/09/02 07:30:04;;;;;;;15.32;4.10;;;;;;;;;;4905519;29;20055;-62
2021/09/02 07:32:30;;;;;;;13.13;3.17;;;;;;;;;;4916885;28;20504;-62
2021/09/02 07:38:31;;;;;;;9.93;3.95;;;;;;;;;;4912945;28;20490;-62
2021/09/02 07:40:59;;;;;;;17.10;3.63;;;;;;;;;;4899966;28;20043;-62
2021/09/02 07:43:26;;;;;;;11.30;3.83;;;;;;;;;;4915018;28;20130;-63
2021/09/02 07:45:57;;;;;;;13.18;3.55;;;;;;;;;;4907830;29;20070;-63
2021/09/02 07:48:22;;;;;;;16.88;3.75;;;;;;;;;;4917675;28;20093;-63
2021/09/02 07:50:50;;;;;;;20.40;3.80;;;;;;;;;;4928443;28;20035;-63
2021/09/02 07:53:21;;;;;;;18.20;3.72;;;;;;;;;;4916484;28;20605;-63
2021/09/02 07:55:46;;;;;;;14.93;4.25;;;;;;;;;;4917128;28;20035;-63
2021/09/02 07:58:12;;;;;;;16.05;4.40;;;;;;;;;;4916515;28;20039;-62
2021/09/02 08:00:39;;;;;;;9.38;3.58;;;;;;;;;;4916663;28;20488;-63
2021/09/02 08:03:07;;;;;;;14.18;3.50;;;;;;;;;;4900321;28;20086;-64
2021/09/02 08:05:33;;;;;;;16.13;3.40;;;;;;;;;;4916249;28;20050;-62
2021/09/02 08:08:03;;;;;;;13.50;3.80;;;;;;;;;;4893975;28;20040;-63
2021/09/02 08:10:28;;;;;;;11.88;3.45;;;;;;;;;;4916746;28;20047;-63
2021/09/02 08:12:54;;;;;;;9.65;3.10;;;;;;;;;;4917838;28;20031;-63
2021/09/02 08:15:19;;;;;;;9.90;3.05;;;;;;;;;;4901689;29;20630;-63
2021/09/02 08:17:50;;;;;;;14.63;3.53;;;;;;;;;;4918340;28;20035;-63
2021/09/02 08:20:18;;;;;;;10.70;3.50;;;;;;;;;;4911122;28;20054;-63
2021/09/02 08:22:44;;;;;;;13.63;3.67;;;;;;;;;;4913544;28;20090;-63
2021/09/02 08:25:13;;;;;;;7.93;3.17;;;;;;;;;;4929685;28;20054;-63
2021/09/02 08:27:41;;;;;;;10.38;3.45;;;;;;;;;;4915640;28;20062;-63
2021/09/02 08:30:09;;;;;;;9.25;3.40;;;;;;;;;;4931471;28;20044;-63
2021/09/02 08:32:37;;;;;;;8.30;3.38;;;;;;;;;;4928705;28;20150;-63
2021/09/02 08:35:02;;;;;;;9.48;3.60;;;;;;;;;;4902699;28;20990;-63
2021/09/02 08:37:32;;;;;;;12.68;3.95;;;;;;;;;;4912806;28;20391;-63
2021/09/02 08:40:00;;;;;;;10.55;3.55;;;;;;;;;;4908646;28;20039;-63
2021/09/02 08:42:25;;;;;;;6.55;3.20;;;;;;;;;;4888855;29;20058;-63
2021/09/02 08:44:53;;;;;;;9.27;3.22;;;;;;;;;;4901536;28;20047;-62
2021/09/02 08:47:20;;;;;;;13.95;4.40;;;;;;;;;;4898401;28;20052;-63
2021/09/02 08:49:46;;;;;;;6.63;3.00;;;;;;;;;;4901805;28;20043;-62
2021/09/02 08:52:11;;;;;;;10.57;3.40;;;;;;;;;;4911399;28;20095;-62
2021/09/02 08:54:39;;;;;;;10.32;3.65;;;;;;;;;;4916733;28;20204;-62
2021/09/02 08:57:07;;;;;;;13.13;4.05;;;;;;;;;;4891195;28;20035;-62
2021/09/02 08:59:35;;;;;;;15.23;3.67;;;;;;;;;;4912179;28;20130;-62
2021/09/02 09:02:19;;;;;;;9.65;3.42;;;;;;;;;;4886793;28;20968;-63
2021/09/02 09:05:09;;;;;;;10.13;3.45;;;;;;;;;;4918719;28;20067;-63
2021/09/02 09:07:45;;;;;;;8.23;3.15;;;;;;;;;;4897901;28;20067;-63
2021/09/02 09:10:10;;;;;;;11.38;3.25;;;;;;;;;;4919543;28;21023;-63
2021/09/02 09:13:05;;;;;;;5.63;3.03;;;;;;;;;;4917762;28;20050;-62
2021/09/02 09:18:44;;;;;;;9.88;2.92;;;;;;;;;;4917968;28;20066;-62
2021/09/02 09:21:13;;;;;;;9.55;3.25;;;;;;;;;;4918734;28;20307;-62
2021/09/02 09:23:57;;;;;;;9.32;3.17;;;;;;;;;;4927203;28;20035;-63
2021/09/02 09:26:23;;;;;;;10.75;3.55;;;;;;;;;;4913959;28;20124;-63
2021/09/02 09:28:54;;;;;;;10.77;3.72;;;;;;;;;;4918675;28;20035;-63
2021/09/02 09:31:35;;;;;;;8.60;3.10;;;;;;;;;;4916118;28;20035;-63
2021/09/02 09:34:05;;;;;;;7.70;3.42;;;;;;;;;;4922110;28;20035;-64
2021/09/02 09:36:31;;;;;;;9.60;3.55;;;;;;;;;;4914348;28;20024;-62
2021/09/02 09:39:06;;;;;;;12.45;3.85;;;;;;;;;;4917258;28;20106;-62
2021/09/02 09:41:39;;;;;;;13.60;3.22;;;;;;;;;;4921299;28;20043;-62
2021/09/02 09:44:33;;;;;;;9.52;2.55;;;;;;;;;;4919572;28;20039;-63
2021/09/02 09:46:58;;;;;;;11.07;2.80;;;;;;;;;;4918012;28;20070;-63
2021/09/02 09:49:39;;;;;;;14.55;3.47;;;;;;;;;;4908855;28;20122;-63
2021/09/02 09:52:16;;;;;;;6.82;3.22;;;;;;;;;;4917495;28;20122;-63
2021/09/02 09:54:41;;;;;;;12.18;3.50;;;;;;;;;;4924926;28;20046;-63
2021/09/02 09:57:06;;;;;;;8.88;3.13;;;;;;;;;;4918591;28;20055;-63
2021/09/02 09:59:35;;;;;;;8.60;2.97;;;;;;;;;;4921990;28;20055;-64
2021/09/02 10:02:03;;;;;;;7.30;2.92;;;;;;;;;;4919635;28;20573;-63
2021/09/02 10:04:31;;;;;;;12.00;3.35;;;;;;;;;;4922733;28;20074;-63
2021/09/02 10:07:00;;;;;;;11.95;3.30;;;;;;;;;;4918165;28;20106;-63
2021/09/02 10:09:56;;;;;;;15.88;4.03;;;;;;;;;;4919350;28;20064;-63
2021/09/02 10:12:23;;;;;;;12.77;3.47;;;;;;;;;;4931203;28;20069;-63
2021/09/02 10:14:48;;;;;;;6.07;2.90;;;;;;;;;;4919783;28;20030;-63
2021/09/02 10:17:16;;;;;;;11.07;4.13;;;;;;;;;;4902185;28;20031;-62
2021/09/02 10:19:43;;;;;;;9.07;3.55;;;;;;;;;;4918981;28;20032;-63
2021/09/02 10:22:11;;;;;;;9.25;3.47;;;;;;;;;;4934108;28;20492;-63
2021/09/02 10:24:40;;;;;;;9.38;3.15;;;;;;;;;;4922258;28;20039;-63
2021/09/02 10:27:16;;;;;;;10.77;3.10;;;;;;;;;;4931771;28;20035;-63
2021/09/02 10:29:42;;;;;;;;;;;;;;;;;;4936188;28;20031;-63
2021/09/02 10:32:23;;;;;;;10.13;3.83;;;;;;;;;;4917770;28;19926;-63
2021/09/02 10:34:52;;;;;;;10.18;2.72;;;;;;;;;;4921712;29;20078;-63
2021/09/02 10:37:46;;;;;;;7.65;3.30;;;;;;;;;;4933558;28;20510;-62
2021/09/02 10:40:20;;;;;;;10.33;3.13;;;;;;;;;;4919660;28;20428;-64
2021/09/02 10:42:49;;;;;;;10.68;3.42;;;;;;;;;;4917394;28;20318;-62
2021/09/02 10:45:27;;;;;;;10.25;3.10;;;;;;;;;;4920644;28;20106;-63
2021/09/02 10:47:55;;;;;;;8.13;3.08;;;;;;;;;;4918916;28;20042;-63
2021/09/02 10:50:23;;;;;;;8.50;3.60;;;;;;;;;;4919902;28;21159;-63
2021/09/02 10:52:49;;;;;;;9.02;3.25;;;;;;;;;;4932836;28;20047;-63
2021/09/02 10:55:36;;;;;;;10.45;2.90;;;;;;;;;;4920061;28;20111;-63
2021/09/02 10:58:05;;;;;;;6.60;3.22;;;;;;;;;;4918671;28;20070;-63
2021/09/02 11:00:35;;;;;;;8.85;3.40;;;;;;;;;;4920059;28;20081;-62
2021/09/02 11:03:21;;;;;;;6.53;3.08;;;;;;;;;;4918945;28;20032;-63
2021/09/02 11:09:29;;;;;;;6.28;3.00;;;;;;;;;;4919559;28;20046;-62
2021/09/02 11:11:59;;;;;;;7.40;2.97;;;;;;;;;;4917566;28;20027;-63
2021/09/02 11:14:27;;;;;;;8.63;3.28;;;;;;;;;;4925538;28;20043;-63
2021/09/02 11:16:53;;;;;;;5.88;3.22;;;;;;;;;;4914377;28;20087;-63
2021/09/02 11:19:32;;;;;;;11.18;2.97;;;;;;;;;;4901497;29;20040;-63
2021/09/02 11:22:27;;;;;;;5.72;2.97;;;;;;;;;;4918426;28;20035;-63
2021/09/02 11:24:56;;;;;;;8.27;3.00;;;;;;;;;;4914038;28;20047;-63
2021/09/02 11:27:32;;;;;;;5.72;2.80;;;;;;;;;;4933123;28;20024;-63
2021/09/02 11:30:11;;;;;;;8.05;2.47;;;;;;;;;;4934305;28;20039;-63
2021/09/02 11:32:37;;;;;;;8.63;3.00;;;;;;;;;;4916945;28;20031;-63
2021/09/02 11:35:09;;;;;;;7.60;2.92;;;;;;;;;;4922499;28;20028;-63
2021/09/02 11:37:35;;;;;;;7.18;2.88;;;;;;;;;;4916135;28;20036;-63
2021/09/02 11:40:01;;;;;;;10.00;3.22;;;;;;;;;;4917664;28;20780;-63
2021/09/02 11:42:28;;;;;;;11.88;3.30;;;;;;;;;;4892188;29;20055;-63
2021/09/02 11:44:54;;;;;;;8.15;2.78;;;;;;;;;;4923844;28;20043;-63
2021/09/02 11:47:22;;;;;;;11.48;3.42;;;;;;;;;;4918557;28;20042;-63
2021/09/02 11:49:58;;;;;;;11.35;3.28;;;;;;;;;;4916678;28;20063;-63
2021/09/02 11:52:23;;;;;;;6.85;3.33;;;;;;;;;;4917330;28;20034;-63
2021/09/02 11:54:49;;;;;;;8.10;3.15;;;;;;;;;;4886589;29;20027;-63
2021/09/02 11:57:25;;;;;;;10.73;3.17;;;;;;;;;;4917802;28;20055;-63
2021/09/02 11:59:53;;;;;;;7.47;2.85;;;;;;;;;;4917937;28;20576;-63
2021/09/02 12:02:18;;;;;;;8.85;3.05;;;;;;;;;;4923236;28;20501;-63
2021/09/02 12:04:51;;;;;;;7.43;3.08;;;;;;;;;;4920272;28;20066;-62
2021/09/02 12:07:19;;;;;;;14.18;3.42;;;;;;;;;;4917638;28;20031;-63
2021/09/02 12:09:48;;;;;;;7.32;3.25;;;;;;;;;;4890763;28;20090;-63
2021/09/02 12:12:27;;;;;;;8.45;2.75;;;;;;;;;;4916636;28;20586;-63
2021/09/02 12:14:55;;;;;;;6.05;2.75;;;;;;;;;;4915633;28;20043;-63
2021/09/02 12:17:30;;;;;;;6.93;2.97;;;;;;;;;;4914968;28;20074;-63
2021/09/02 12:19:59;;;;;;;8.25;3.10;;;;;;;;;;4920192;28;20040;-62
2021/09/02 12:22:31;;;;;;;8.75;3.22;;;;;;;;;;4915789;28;20169;-63
2021/09/02 12:25:19;;;;;;;9.43;2.88;;;;;;;;;;4901053;29;20579;-62
2021/09/02 12:27:46;;;;;;;8.68;3.50;;;;;;;;;;4913621;28;20506;-62
2021/09/02 12:30:14;;;;;;;6.18;2.55;;;;;;;;;;4922962;28;20124;-63
2021/09/02 12:32:42;;;;;;;6.30;3.03;;;;;;;;;;4920783;28;20027;-63
2021/09/02 12:35:14;;;;;;;4.88;2.55;;;;;;;;;;4920265;28;20035;-63
2021/09/02 12:37:45;;;;;;;9.90;3.05;;;;;;;;;;4921420;28;20027;-63
2021/09/02 12:40:19;;;;;;;10.50;3.22;;;;;;;;;;4935392;28;20047;-63
2021/09/02 12:43:22;;;;;;;6.68;3.17;;;;;;;;;;4927557;28;20100;-63
2021/09/02 12:45:57;;;;;;;5.68;3.10;;;;;;;;;;4902248;28;20071;-63
2021/09/02 12:48:22;;;;;;;8.48;3.30;;;;;;;;;;4888838;28;21975;-63
2021/09/02 12:50:51;;;;;;;9.15;2.97;;;;;;;;;;4922411;28;20031;-63
2021/09/02 12:53:29;;;;;;;8.27;2.80;;;;;;;;;;4919000;28;20037;-63
2021/09/02 12:55:54;;;;;;;9.85;2.78;;;;;;;;;;4935253;28;20039;-62
2021/09/02 12:58:20;;;;;;;9.82;3.03;;;;;;;;;;4921730;28;20023;-62
2021/09/02 13:00:50;;;;;;;10.35;3.47;;;;;;;;;;4925774;28;20535;-62
2021/09/02 13:03:17;;;;;;;10.32;2.85;;;;;;;;;;4909369;28;20054;-62
2021/09/02 13:05:48;;;;;;;6.82;3.20;;;;;;;;;;4920899;28;20043;-62
2021/09/02 13:08:16;;;;;;;7.32;3.03;;;;;;;;;;4921664;28;20031;-62
2021/09/02 13:10:44;;;;;;;6.53;3.00;;;;;;;;;;4922817;28;22143;-62
2021/09/02 13:13:10;;;;;;;6.60;3.15;;;;;;;;;;4900937;29;20352;-61
2021/09/02 13:15:36;;;;;;;6.18;2.95;;;;;;;;;;4928513;28;20119;-62
2021/09/02 13:18:01;;;;;;;7.95;2.97;;;;;;;;;;4919217;28;20031;-63
2021/09/02 13:20:27;;;;;;;10.75;2.88;;;;;;;;;;4922625;28;20028;-62
2021/09/02 13:22:57;;;;;;;11.55;3.00;;;;;;;;;;4921103;28;20262;-63
2021/09/02 13:25:24;;;;;;;10.98;3.03;;;;;;;;;;4937470;28;20043;-63
2021/09/02 13:27:49;;;;;;;10.60;3.72;;;;;;;;;;4924422;28;20035;-63
2021/09/02 13:30:19;;;;;;;11.77;3.42;;;;;;;;;;4904958;28;20066;-63
2021/09/02 13:32:49;;;;;;;8.27;3.40;;;;;;;;;;4921766;28;20028;-62
2021/09/02 13:35:20;;;;;;;7.13;2.90;;;;;;;;;;4922639;28;20039;-63
2021/09/02 13:37:52;;;;;;;7.53;2.67;;;;;;;;;;4920034;28;20031;-63
2021/09/02 13:40:21;;;;;;;7.53;3.15;;;;;;;;;;4919978;28;20979;-64
2021/09/02 13:42:47;;;;;;;8.85;3.33;;;;;;;;;;4934273;28;20342;-63
2021/09/02 13:45:15;;;;;;;10.45;3.92;;;;;;;;;;4921136;28;20063;-63
2021/09/02 13:47:45;;;;;;;9.48;2.80;;;;;;;;;;4905299;29;20144;-63
2021/09/02 13:50:14;;;;;;;12.13;2.97;;;;;;;;;;4918774;28;20020;-63
2021/09/02 13:52:43;;;;;;;8.07;2.85;;;;;;;;;;4935035;28;20857;-63
2021/09/02 13:55:14;;;;;;;5.90;3.38;;;;;;;;;;4933861;28;20031;-63
2021/09/02 13:57:40;;;;;;;6.40;3.17;;;;;;;;;;4916380;28;20028;-63
2021/09/02 14:00:09;;;;;;;11.85;3.78;;;;;;;;;;4922519;28;20035;-63
2021/09/02 14:02:36;;;;;;;10.45;3.58;;;;;;;;;;4917973;28;20172;-63
2021/09/02 14:05:01;;;;;;;11.13;3.38;;;;;;;;;;4919633;28;20729;-62
2021/09/02 14:07:29;;;;;;;8.75;3.00;;;;;;;;;;4920348;28;20802;-61
2021/09/02 14:09:55;;;;;;;8.82;3.38;;;;;;;;;;4902602;28;20035;-63
2021/09/02 14:12:22;;;;;;;7.80;2.92;;;;;;;;;;4920127;28;20412;-63
2021/09/02 14:14:48;;;;;;;9.52;3.45;;;;;;;;;;4925401;28;20023;-63
2021/09/02 14:17:13;;;;;;;9.90;3.65;;;;;;;;;;4919020;28;20086;-62
2021/09/02 14:19:41;;;;;;;7.50;3.05;;;;;;;;;;4920157;28;20028;-63
2021/09/02 14:22:37;;;;;;;8.18;3.05;;;;;;;;;;4919519;28;20091;-62
2021/09/02 14:25:03;;;;;;;11.50;3.35;;;;;;;;;;4901517;28;20039;-62
2021/09/02 14:27:30;;;;;;;10.93;3.53;;;;;;;;;;4905910;28;20028;-62
2021/09/02 14:29:56;;;;;;;6.82;2.90;;;;;;;;;;4918621;28;20043;-63
2021/09/02 14:32:21;;;;;;;5.80;2.88;;;;;;;;;;4908846;28;20159;-63
2021/09/02 14:34:49;;;;;;;5.78;2.50;;;;;;;;;;4917956;28;20032;-63
2021/09/02 14:37:20;;;;;;;8.10;2.50;;;;;;;;;;4904916;28;20086;-62
2021/09/02 14:39:45;;;;;;;5.38;2.58;;;;;;;;;;4916344;28;20720;-62
2021/09/02 14:42:13;;;;;;;7.20;2.55;;;;;;;;;;4916651;28;20047;-63
2021/09/02 14:44:38;;;;;;;6.45;2.88;;;;;;;;;;4899968;28;20593;-62
2021/09/02 14:47:07;;;;;;;8.40;3.30;;;;;;;;;;4918027;28;20313;-62
2021/09/02 14:49:33;;;;;;;7.50;2.63;;;;;;;;;;4886286;28;20039;-61
2021/09/02 14:52:00;;;;;;;12.07;3.25;;;;;;;;;;4897456;28;20066;-61
2021/09/02 14:54:30;;;;;;;7.80;2.67;;;;;;;;;;4917940;28;20039;-62
2021/09/02 14:56:58;;;;;;;6.32;3.10;;;;;;;;;;4898778;28;20057;-62
2021/09/02 14:59:28;;;;;;;5.55;2.10;;;;;;;;;;4916897;28;20094;-62
2021/09/02 15:01:53;;;;;;;5.65;2.80;;;;;;;;;;4922058;28;20423;-62
2021/09/02 15:04:23;;;;;;;8.93;2.65;;;;;;;;;;4907363;29;20039;-62